sensor_id;sensor_type;location;lat;lon;timestamp;pressure;altitude;pressure_sealevel;temperature;humidity
9419;BME280;4748;50.802;7.132;2022-09-17T03:32:44;100700.78;;;11.97;100.00
9419;BME280;4748;50.802;7.132;2022-09-17T03:35:09;100699.34;;;11.94;100.00
9419;BME280;4748;50.802;7.132;2022-09-17T03:37:35;100696.91;;;11.93;100.00
9419;BME280;4748;50.802;7.132;2022-09-17T03:40:03;100704.94;;;11.93;100.00
9419;BME280;4748;50.802;7.132;2022-09-17T03:42:29;100692.34;;;11.93;100.00
9419;BME280;4748;50.802;7.132;2022-09-17T03:44:55;100713.22;;;11.91;100.00
9419;BME280;4748;50.802;7.132;2022-09-17T03:47:21;100709.84;;;11.96;100.00
9419;BME280;4748;50.802;7.132;2022-09-17T03:49:46;100707.97;;;11.96;100.00
9419;BME280;4748;50.802;7.132;2022-09-17T03:52:12;100711.69;;;11.95;100.00
9419;BME280;4748;50.802;7.132;2022-09-17T03:54:38;100719.31;;;11.98;100.00
9419;BME280;4748;50.802;7.132;2022-09-17T03:57:03;100710.91;;;11.95;100.00
9419;BME280;4748;50.802;7.132;2022-09-17T03:59:28;100712.78;;;11.94;100.00
9419;BME280;4748;50.802;7.132;2022-09-17T04:01:54;100711.69;;;11.95;100.00
9419;BME280;4748;50.802;7.132;2022-09-17T04:04:19;100709.63;;;11.97;100.00
9419;BME280;4748;50.802;7.132;2022-09-17T04:06:44;100715.34;;;12.01;100.00
9419;BME280;4748;50.802;7.132;2022-09-17T04:09:10;100729.38;;;12.03;100.00
9419;BME280;4748;50.802;7.132;2022-09-17T04:11:35;100722.34;;;12.02;100.00
9419;BME280;4748;50.802;7.132;2022-09-17T04:14:01;100719.22;;;12.05;100.00
9419;BME280;4748;50.802;7.132;2022-09-17T04:16:26;100726.47;;;12.04;100.00
9419;BME280;4748;50.802;7.132;2022-09-17T04:18:52;100725.63;;;12.04;100.00
9419;BME280;4748;50.802;7.132;2022-09-17T04:21:17;100719.44;;;12.03;100.00
9419;BME280;4748;50.802;7.132;2022-09-17T04:23:42;100727.72;;;12.02;100.00
9419;BME280;4748;50.802;7.132;2022-09-17T04:26:08;100734.34;;;11.99;100.00
9419;BME280;4748;50.802;7.132;2022-09-17T04:28:33;100725.72;;;11.97;100.00
9419;BME280;4748;50.802;7.132;2022-09-17T04:30:58;100732.13;;;11.96;100.00
9419;BME280;4748;50.802;7.132;2022-09-17T04:33:24;100724.69;;;11.98;100.00
9419;BME280;4748;50.802;7.132;2022-09-17T04:35:49;100730.63;;;12.00;100.00
9419;BME280;4748;50.802;7.132;2022-09-17T04:38:14;100728.41;;;11.97;100.00
9419;BME280;4748;50.802;7.132;2022-09-17T04:40:43;100729.22;;;11.98;100.00
9419;BME280;4748;50.802;7.132;2022-09-17T04:43:08;100727.22;;;11.93;100.00
9419;BME280;4748;50.802;7.132;2022-09-17T04:45:35;100731.09;;;11.97;100.00
9419;BME280;4748;50.802;7.132;2022-09-17T04:48:00;100724.47;;;12.00;100.00
9419;BME280;4748;50.802;7.132;2022-09-17T04:50:26;100735.44;;;11.98;100.00
9419;BME280;4748;50.802;7.132;2022-09-17T04:52:51;100735.44;;;11.98;100.00
9419;BME280;4748;50.802;7.132;2022-09-17T04:55:17;100735.84;;;11.95;100.00
9419;BME280;4748;50.802;7.132;2022-09-17T04:57:50;100734.81;;;11.96;100.00
9419;BME280;4748;50.802;7.132;2022-09-17T05:00:17;100737.28;;;11.98;100.00
9419;BME280;4748;50.802;7.132;2022-09-17T05:02:45;100746.16;;;11.98;100.00
9419;BME280;4748;50.802;7.132;2022-09-17T05:05:11;100735.84;;;11.95;100.00
9419;BME280;4748;50.802;7.132;2022-09-17T05:07:39;100755.69;;;11.94;100.00
9419;BME280;4748;50.802;7.132;2022-09-17T05:10:05;100748.34;;;11.90;100.00
9419;BME280;4748;50.802;7.132;2022-09-17T05:12:31;100752.78;;;11.96;100.00
9419;BME280;4748;50.802;7.132;2022-09-17T05:14:56;100753.59;;;11.96;100.00
9419;BME280;4748;50.802;7.132;2022-09-17T05:17:21;100752.56;;;11.97;100.00
9419;BME280;4748;50.802;7.132;2022-09-17T05:19:47;100748.63;;;12.00;100.00
9419;BME280;4748;50.802;7.132;2022-09-17T05:22:12;100745.25;;;12.04;100.00
9419;BME280;4748;50.802;7.132;2022-09-17T05:24:37;100748.84;;;11.98;100.00
9419;BME280;4748;50.802;7.132;2022-09-17T05:27:04;100752.09;;;12.00;100.00
9419;BME280;4748;50.802;7.132;2022-09-17T05:29:30;100747.19;;;11.97;100.00
9419;BME280;4748;50.802;7.132;2022-09-17T05:31:55;100746.28;;;12.03;100.00
9419;BME280;4748;50.802;7.132;2022-09-17T05:34:21;100757.47;;;12.00;100.00
9419;BME280;4748;50.802;7.132;2022-09-17T05:36:46;100754.09;;;12.05;100.00
9419;BME280;4748;50.802;7.132;2022-09-17T05:39:11;100760.88;;;12.07;100.00
9419;BME280;4748;50.802;7.132;2022-09-17T05:41:36;100767.44;;;12.11;100.00
9419;BME280;4748;50.802;7.132;2022-09-17T05:44:02;100762.31;;;12.10;100.00
9419;BME280;4748;50.802;7.132;2022-09-17T05:46:27;100761.16;;;12.17;100.00
9419;BME280;4748;50.802;7.132;2022-09-17T05:48:56;100774.94;;;12.21;100.00
9419;BME280;4748;50.802;7.132;2022-09-17T05:51:22;100784.63;;;12.22;100.00
9419;BME280;4748;50.802;7.132;2022-09-17T05:53:47;100777.84;;;12.19;100.00
9419;BME280;4748;50.802;7.132;2022-09-17T05:56:13;100782.75;;;12.22;100.00
9419;BME280;4748;50.802;7.132;2022-09-17T05:58:38;100785.91;;;12.19;100.00
9419;BME280;4748;50.802;7.132;2022-09-17T06:01:03;100782.75;;;12.22;100.00
9419;BME280;4748;50.802;7.132;2022-09-17T06:03:29;100790.34;;;12.25;100.00
9419;BME280;4748;50.802;7.132;2022-09-17T06:05:56;100790.34;;;12.25;100.00
9419;BME280;4748;50.802;7.132;2022-09-17T06:08:23;100792.00;;;12.26;100.00
9419;BME280;4748;50.802;7.132;2022-09-17T06:10:49;100800.34;;;12.36;100.00
9419;BME280;4748;50.802;7.132;2022-09-17T06:13:19;100803.75;;;12.43;100.00
9419;BME280;4748;50.802;7.132;2022-09-17T06:15:49;100796.28;;;12.45;100.00
9419;BME280;4748;50.802;7.132;2022-09-17T06:18:15;100806.69;;;12.53;100.00
9419;BME280;4748;50.802;7.132;2022-09-17T06:20:40;100810.81;;;12.55;100.00
9419;BME280;4748;50.802;7.132;2022-09-17T06:23:06;100808.38;;;12.65;100.00
9419;BME280;4748;50.802;7.132;2022-09-17T06:25:31;100811.34;;;12.75;100.00
9419;BME280;4748;50.802;7.132;2022-09-17T06:27:56;100809.22;;;12.77;100.00
9419;BME280;4748;50.802;7.132;2022-09-17T06:30:22;100814.84;;;12.75;100.00
9419;BME280;4748;50.802;7.132;2022-09-17T06:32:47;100817.25;;;12.95;100.00
9419;BME280;4748;50.802;7.132;2022-09-17T06:35:12;100812.38;;;13.26;100.00
9419;BME280;4748;50.802;7.132;2022-09-17T06:37:38;100808.06;;;13.48;100.00
9419;BME280;4748;50.802;7.132;2022-09-17T06:40:05;100830.03;;;13.56;100.00
9419;BME280;4748;50.802;7.132;2022-09-17T06:42:31;100820.56;;;13.54;100.00
9419;BME280;4748;50.802;7.132;2022-09-17T06:44:56;100825.34;;;13.75;100.00
9419;BME280;4748;50.802;7.132;2022-09-17T06:47:25;100825.78;;;13.94;100.00
9419;BME280;4748;50.802;7.132;2022-09-17T06:49:50;100822.63;;;14.09;100.00
9419;BME280;4748;50.802;7.132;2022-09-17T06:52:16;100827.72;;;14.22;100.00
9419;BME280;4748;50.802;7.132;2022-09-17T06:54:41;100826.72;;;14.50;100.00
9419;BME280;4748;50.802;7.132;2022-09-17T06:57:07;100831.75;;;14.75;100.00
9419;BME280;4748;50.802;7.132;2022-09-17T06:59:32;100830.47;;;14.66;100.00
9419;BME280;4748;50.802;7.132;2022-09-17T07:01:57;100825.25;;;14.59;100.00
9419;BME280;4748;50.802;7.132;2022-09-17T07:04:22;100832.84;;;14.34;100.00
9419;BME280;4748;50.802;7.132;2022-09-17T07:06:48;100818.69;;;14.27;100.00
9419;BME280;4748;50.802;7.132;2022-09-17T07:09:13;100827.28;;;14.13;100.00
9419;BME280;4748;50.802;7.132;2022-09-17T07:11:38;100831.28;;;14.11;100.00
9419;BME280;4748;50.802;7.132;2022-09-17T07:14:04;100835.84;;;14.10;100.00
9419;BME280;4748;50.802;7.132;2022-09-17T07:16:31;100834.56;;;13.90;100.00
9419;BME280;4748;50.802;7.132;2022-09-17T07:19:02;100841.00;;;13.77;100.00
9419;BME280;4748;50.802;7.132;2022-09-17T07:21:27;100837.06;;;13.69;100.00
9419;BME280;4748;50.802;7.132;2022-09-17T07:23:53;100833.19;;;13.65;100.00
9419;BME280;4748;50.802;7.132;2022-09-17T07:26:18;100844.75;;;13.54;100.00
9419;BME280;4748;50.802;7.132;2022-09-17T07:28:44;100841.84;;;13.55;100.00
9419;BME280;4748;50.802;7.132;2022-09-17T07:31:10;100851.22;;;13.64;100.00
9419;BME280;4748;50.802;7.132;2022-09-17T07:33:37;100852.72;;;13.72;100.00
9419;BME280;4748;50.802;7.132;2022-09-17T07:36:13;100841.50;;;13.75;100.00
9419;BME280;4748;50.802;7.132;2022-09-17T07:38:39;100859.38;;;13.80;100.00
9419;BME280;4748;50.802;7.132;2022-09-17T07:41:09;100853.28;;;13.85;100.00
9419;BME280;4748;50.802;7.132;2022-09-17T07:43:36;100854.69;;;13.87;100.00
9419;BME280;4748;50.802;7.132;2022-09-17T07:46:03;100855.97;;;13.85;100.00
9419;BME280;4748;50.802;7.132;2022-09-17T07:48:30;100855.63;;;13.93;100.00
9419;BME280;4748;50.802;7.132;2022-09-17T07:50:55;100851.28;;;13.92;100.00
9419;BME280;4748;50.802;7.132;2022-09-17T07:53:21;100850.34;;;13.86;100.00
9419;BME280;4748;50.802;7.132;2022-09-17T07:55:53;100853.75;;;13.93;100.00
9419;BME280;4748;50.802;7.132;2022-09-17T07:58:23;100852.22;;;13.97;100.00
9419;BME280;4748;50.802;7.132;2022-09-17T08:00:48;100853.84;;;14.21;100.00
9419;BME280;4748;50.802;7.132;2022-09-17T08:03:14;100852.84;;;14.38;100.00
9419;BME280;4748;50.802;7.132;2022-09-17T08:05:40;100855.66;;;14.43;100.00
9419;BME280;4748;50.802;7.132;2022-09-17T08:08:05;100852.97;;;14.43;100.00
9419;BME280;4748;50.802;7.132;2022-09-17T08:10:31;100851.66;;;14.46;100.00
9419;BME280;4748;50.802;7.132;2022-09-17T08:12:57;100855.03;;;14.53;100.00
9419;BME280;4748;50.802;7.132;2022-09-17T08:15:23;100856.09;;;14.52;100.00
9419;BME280;4748;50.802;7.132;2022-09-17T08:17:49;100851.28;;;14.98;100.00
9419;BME280;4748;50.802;7.132;2022-09-17T08:20:15;100848.09;;;15.01;100.00
9419;BME280;4748;50.802;7.132;2022-09-17T08:22:42;100841.88;;;15.44;100.00
9419;BME280;4748;50.802;7.132;2022-09-17T08:25:08;100855.75;;;15.20;100.00
9419;BME280;4748;50.802;7.132;2022-09-17T08:27:34;100860.69;;;14.95;100.00
9419;BME280;4748;50.802;7.132;2022-09-17T08:30:00;100852.31;;;15.41;100.00
9419;BME280;4748;50.802;7.132;2022-09-17T08:32:28;100849.41;;;15.42;100.00
9419;BME280;4748;50.802;7.132;2022-09-17T08:34:54;100863.34;;;15.56;100.00
9419;BME280;4748;50.802;7.132;2022-09-17T08:37:19;100855.41;;;15.49;100.00
9419;BME280;4748;50.802;7.132;2022-09-17T08:39:45;100852.50;;;15.34;100.00
9419;BME280;4748;50.802;7.132;2022-09-17T08:42:16;100854.59;;;15.65;100.00
9419;BME280;4748;50.802;7.132;2022-09-17T08:44:46;100854.53;;;15.44;100.00
9419;BME280;4748;50.802;7.132;2022-09-17T08:47:27;100854.22;;;15.57;100.00
9419;BME280;4748;50.802;7.132;2022-09-17T08:49:57;100852.00;;;15.37;100.00
9419;BME280;4748;50.802;7.132;2022-09-17T08:52:44;100846.94;;;15.25;100.00
9419;BME280;4748;50.802;7.132;2022-09-17T08:55:21;100849.38;;;15.26;100.00
9419;BME280;4748;50.802;7.132;2022-09-17T09:00:45;100853.19;;;15.14;100.00
9419;BME280;4748;50.802;7.132;2022-09-17T09:05:52;100863.13;;;15.57;100.00
9419;BME280;4748;50.802;7.132;2022-09-17T09:11:05;100845.91;;;15.63;100.00
9419;BME280;4748;50.802;7.132;2022-09-17T09:13:37;100853.28;;;15.68;100.00
9419;BME280;4748;50.802;7.132;2022-09-17T09:16:16;100843.38;;;15.73;100.00
9419;BME280;4748;50.802;7.132;2022-09-17T09:18:42;100851.13;;;15.86;100.00
9419;BME280;4748;50.802;7.132;2022-09-17T09:21:27;100854.94;;;16.06;100.00
9419;BME280;4748;50.802;7.132;2022-09-17T09:23:54;100842.53;;;16.10;100.00
9419;BME280;4748;50.802;7.132;2022-09-17T09:26:37;100843.22;;;16.65;100.00
9419;BME280;4748;50.802;7.132;2022-09-17T09:34:25;100842.06;;;16.56;100.00
9419;BME280;4748;50.802;7.132;2022-09-17T09:36:57;100843.91;;;16.29;100.00
9419;BME280;4748;50.802;7.132;2022-09-17T09:39:28;100843.91;;;16.29;100.00
9419;BME280;4748;50.802;7.132;2022-09-17T09:44:48;100845.72;;;16.71;100.00
9419;BME280;4748;50.802;7.132;2022-09-17T09:47:26;100844.91;;;16.71;100.00
9419;BME280;4748;50.802;7.132;2022-09-17T09:57:47;100842.00;;;16.30;100.00
9419;BME280;4748;50.802;7.132;2022-09-17T10:00:24;100835.38;;;15.99;100.00
9419;BME280;4748;50.802;7.132;2022-09-17T10:05:26;100844.47;;;15.56;100.00
9419;BME280;4748;50.802;7.132;2022-09-17T10:07:52;100853.56;;;15.50;100.00
9419;BME280;4748;50.802;7.132;2022-09-17T10:10:17;100842.75;;;15.87;100.00
9419;BME280;4748;50.802;7.132;2022-09-17T10:12:42;100846.19;;;15.99;100.00
9419;BME280;4748;50.802;7.132;2022-09-17T10:15:26;100841.66;;;16.05;100.00
9419;BME280;4748;50.802;7.132;2022-09-17T10:18:15;100847.06;;;15.83;100.00
9419;BME280;4748;50.802;7.132;2022-09-17T10:21:17;100833.09;;;16.29;100.00
9419;BME280;4748;50.802;7.132;2022-09-17T10:23:43;100830.22;;;16.62;100.00
9419;BME280;4748;50.802;7.132;2022-09-17T10:26:23;100837.41;;;16.78;100.00
9419;BME280;4748;50.802;7.132;2022-09-17T10:28:55;100825.09;;;16.65;100.00
9419;BME280;4748;50.802;7.132;2022-09-17T10:31:21;100834.50;;;16.58;100.00
9419;BME280;4748;50.802;7.132;2022-09-17T10:33:58;100830.00;;;16.68;100.00
9419;BME280;4748;50.802;7.132;2022-09-17T10:36:43;100830.19;;;16.35;100.00
9419;BME280;4748;50.802;7.132;2022-09-17T10:44:23;100830.72;;;16.59;100.00
9419;BME280;4748;50.802;7.132;2022-09-17T10:46:50;100822.00;;;16.78;100.00
9419;BME280;4748;50.802;7.132;2022-09-17T10:49:27;100824.78;;;16.88;94.96
9419;BME280;4748;50.802;7.132;2022-09-17T10:52:11;100818.78;;;17.12;92.27
9419;BME280;4748;50.802;7.132;2022-09-17T10:54:49;100817.25;;;17.21;92.28
9419;BME280;4748;50.802;7.132;2022-09-17T11:00:18;100800.06;;;17.78;90.66
9419;BME280;4748;50.802;7.132;2022-09-17T11:05:33;100807.75;;;17.50;88.44
9419;BME280;4748;50.802;7.132;2022-09-17T11:10:57;100792.31;;;17.50;91.55
9419;BME280;4748;50.802;7.132;2022-09-17T11:13:39;100792.78;;;17.84;93.07
9419;BME280;4748;50.802;7.132;2022-09-17T11:16:41;100792.28;;;17.87;86.63
9419;BME280;4748;50.802;7.132;2022-09-17T11:24:47;100790.19;;;17.52;91.54
9419;BME280;4748;50.802;7.132;2022-09-17T11:30:15;100794.13;;;17.35;97.44
9419;BME280;4748;50.802;7.132;2022-09-17T11:35:56;100795.66;;;17.62;94.39
9419;BME280;4748;50.802;7.132;2022-09-17T11:38:38;100783.66;;;17.53;87.92
9419;BME280;4748;50.802;7.132;2022-09-17T11:41:20;100790.53;;;17.66;89.08
9419;BME280;4748;50.802;7.132;2022-09-17T11:46:36;100787.84;;;17.71;90.73
9419;BME280;4748;50.802;7.132;2022-09-17T11:51:34;100797.09;;;17.80;92.64
9419;BME280;4748;50.802;7.132;2022-09-17T11:56:43;100788.28;;;17.53;86.15
9419;BME280;4748;50.802;7.132;2022-09-17T11:59:19;100786.16;;;17.60;87.65
9419;BME280;4748;50.802;7.132;2022-09-17T12:05:02;100791.56;;;17.60;86.58
9419;BME280;4748;50.802;7.132;2022-09-17T12:07:35;100817.16;;;16.54;93.22
9419;BME280;4748;50.802;7.132;2022-09-17T12:13:13;100832.78;;;14.46;100.00
9419;BME280;4748;50.802;7.132;2022-09-17T12:15:44;100823.25;;;14.27;100.00
9419;BME280;4748;50.802;7.132;2022-09-17T12:21:25;100812.53;;;14.16;100.00
9419;BME280;4748;50.802;7.132;2022-09-17T12:23:59;100819.31;;;14.46;100.00
9419;BME280;4748;50.802;7.132;2022-09-17T12:59:47;100794.75;;;15.52;100.00
9419;BME280;4748;50.802;7.132;2022-09-17T13:02:21;100806.78;;;15.44;100.00
9419;BME280;4748;50.802;7.132;2022-09-17T13:10:27;100798.91;;;14.78;100.00
9419;BME280;4748;50.802;7.132;2022-09-17T13:13:06;100791.88;;;14.77;100.00
9419;BME280;4748;50.802;7.132;2022-09-17T13:15:36;100793.91;;;14.70;100.00
9419;BME280;4748;50.802;7.132;2022-09-17T13:20:50;100771.44;;;14.64;100.00
9419;BME280;4748;50.802;7.132;2022-09-17T13:23:39;100766.38;;;14.84;100.00
9419;BME280;4748;50.802;7.132;2022-09-17T13:26:06;100758.91;;;14.86;100.00
9419;BME280;4748;50.802;7.132;2022-09-17T13:28:58;100762.88;;;14.83;100.00
9419;BME280;4748;50.802;7.132;2022-09-17T13:34:01;100753.16;;;14.82;100.00
9419;BME280;4748;50.802;7.132;2022-09-17T13:36:39;100762.78;;;14.78;100.00
9419;BME280;4748;50.802;7.132;2022-09-17T13:39:08;100780.19;;;14.71;100.00
9419;BME280;4748;50.802;7.132;2022-09-17T13:41:41;100806.34;;;14.15;100.00
9419;BME280;4748;50.802;7.132;2022-09-17T13:44:08;100817.28;;;13.52;100.00
9419;BME280;4748;50.802;7.132;2022-09-17T13:46:35;100831.91;;;13.10;100.00
9419;BME280;4748;50.802;7.132;2022-09-17T13:49:10;100833.16;;;12.78;100.00
9419;BME280;4748;50.802;7.132;2022-09-17T13:54:09;100865.75;;;12.23;100.00
9419;BME280;4748;50.802;7.132;2022-09-17T13:56:50;100841.66;;;11.64;100.00
9419;BME280;4748;50.802;7.132;2022-09-17T13:59:27;100828.06;;;11.41;100.00
9419;BME280;4748;50.802;7.132;2022-09-17T14:17:58;100788.75;;;12.06;100.00
9419;BME280;4748;50.802;7.132;2022-09-17T14:20:24;100786.81;;;12.13;100.00
9419;BME280;4748;50.802;7.132;2022-09-17T14:22:57;100782.94;;;12.09;100.00
9419;BME280;4748;50.802;7.132;2022-09-17T14:25:51;100781.38;;;12.20;100.00
9419;BME280;4748;50.802;7.132;2022-09-17T14:31:25;100776.59;;;12.51;100.00
9419;BME280;4748;50.802;7.132;2022-09-17T14:33:51;100776.38;;;12.64;100.00
9419;BME280;4748;50.802;7.132;2022-09-17T14:36:19;100774.34;;;12.88;100.00
9419;BME280;4748;50.802;7.132;2022-09-17T14:38:49;100769.22;;;12.98;100.00
9419;BME280;4748;50.802;7.132;2022-09-17T14:41:37;100766.75;;;13.42;100.00
9419;BME280;4748;50.802;7.132;2022-09-17T14:44:07;100779.06;;;13.61;100.00
9419;BME280;4748;50.802;7.132;2022-09-17T14:49:25;100770.09;;;13.83;100.00
9419;BME280;4748;50.802;7.132;2022-09-17T14:51:52;100767.03;;;13.91;100.00
9419;BME280;4748;50.802;7.132;2022-09-17T14:54:31;100764.72;;;13.83;100.00
9419;BME280;4748;50.802;7.132;2022-09-17T14:59:46;100778.22;;;13.61;100.00
9419;BME280;4748;50.802;7.132;2022-09-17T15:04:52;100839.22;;;12.92;100.00
9419;BME280;4748;50.802;7.132;2022-09-17T15:07:19;100800.88;;;12.56;100.00
9419;BME280;4748;50.802;7.132;2022-09-17T15:09:45;100784.75;;;12.56;100.00
9419;BME280;4748;50.802;7.132;2022-09-17T15:12:15;100774.28;;;12.66;100.00
9419;BME280;4748;50.802;7.132;2022-09-17T15:14:42;100778.25;;;12.74;100.00
9419;BME280;4748;50.802;7.132;2022-09-17T15:17:17;100774.81;;;12.97;100.00
9419;BME280;4748;50.802;7.132;2022-09-17T15:19:55;100781.88;;;13.09;100.00
9419;BME280;4748;50.802;7.132;2022-09-17T15:22:30;100787.00;;;13.11;100.00
9419;BME280;4748;50.802;7.132;2022-09-17T15:25:05;100790.03;;;13.14;100.00
9419;BME280;4748;50.802;7.132;2022-09-17T15:27:38;100791.69;;;13.15;100.00
9419;BME280;4748;50.802;7.132;2022-09-17T15:30:15;100790.16;;;13.19;100.00
9419;BME280;4748;50.802;7.132;2022-09-17T15:32:47;100797.06;;;13.26;100.00
9419;BME280;4748;50.802;7.132;2022-09-17T15:37:52;100804.19;;;13.10;100.00
9419;BME280;4748;50.802;7.132;2022-09-17T15:43:01;100815.38;;;12.95;100.00
9419;BME280;4748;50.802;7.132;2022-09-17T15:45:28;100799.94;;;12.91;100.00
9419;BME280;4748;50.802;7.132;2022-09-17T15:48:01;100801.94;;;12.95;100.00
9419;BME280;4748;50.802;7.132;2022-09-17T15:50:34;100801.94;;;12.95;100.00
9419;BME280;4748;50.802;7.132;2022-09-17T15:53:20;100794.00;;;13.00;100.00
9419;BME280;4748;50.802;7.132;2022-09-17T16:09:02;100792.16;;;13.12;100.00
9419;BME280;4748;50.802;7.132;2022-09-17T16:11:31;100794.84;;;13.12;100.00
9419;BME280;4748;50.802;7.132;2022-09-17T16:13:58;100801.97;;;13.18;100.00
9419;BME280;4748;50.802;7.132;2022-09-17T16:16:36;100801.97;;;13.29;100.00
9419;BME280;4748;50.802;7.132;2022-09-17T16:19:03;100797.06;;;13.49;100.00
9419;BME280;4748;50.802;7.132;2022-09-17T16:21:30;100808.03;;;13.59;100.00
9419;BME280;4748;50.802;7.132;2022-09-17T16:23:56;100805.09;;;13.72;100.00
9419;BME280;4748;50.802;7.132;2022-09-17T16:26:27;100803.94;;;13.79;100.00
9419;BME280;4748;50.802;7.132;2022-09-17T16:28:55;100806.75;;;13.62;100.00
9419;BME280;4748;50.802;7.132;2022-09-17T16:31:23;100799.16;;;13.59;100.00
9419;BME280;4748;50.802;7.132;2022-09-17T16:33:50;100808.88;;;13.60;100.00
9419;BME280;4748;50.802;7.132;2022-09-17T16:36:18;100802.66;;;13.48;100.00
9419;BME280;4748;50.802;7.132;2022-09-17T16:38:44;100807.47;;;13.46;100.00
9419;BME280;4748;50.802;7.132;2022-09-17T16:41:09;100801.03;;;13.35;100.00
9419;BME280;4748;50.802;7.132;2022-09-17T16:43:36;100808.19;;;13.30;100.00
9419;BME280;4748;50.802;7.132;2022-09-17T16:46:04;100797.88;;;13.27;100.00
9419;BME280;4748;50.802;7.132;2022-09-17T16:48:31;100803.13;;;13.22;100.00
9419;BME280;4748;50.802;7.132;2022-09-17T16:50:57;100807.56;;;13.17;100.00
9419;BME280;4748;50.802;7.132;2022-09-17T16:53:26;100806.16;;;13.14;100.00
9419;BME280;4748;50.802;7.132;2022-09-17T16:55:51;100805.69;;;13.17;100.00
9419;BME280;4748;50.802;7.132;2022-09-17T16:58:17;100803.59;;;13.19;100.00
9419;BME280;4748;50.802;7.132;2022-09-17T17:00:42;100807.94;;;13.20;100.00
9419;BME280;4748;50.802;7.132;2022-09-17T17:03:10;100810.25;;;13.17;100.00
9419;BME280;4748;50.802;7.132;2022-09-17T17:05:36;100806.41;;;13.13;100.00
9419;BME280;4748;50.802;7.132;2022-09-17T17:08:02;100811.78;;;13.13;100.00
9419;BME280;4748;50.802;7.132;2022-09-17T17:10:27;100804.41;;;13.08;100.00
9419;BME280;4748;50.802;7.132;2022-09-17T17:12:52;100809.69;;;13.03;100.00
9419;BME280;4748;50.802;7.132;2022-09-17T17:15:18;100812.69;;;12.95;100.00
9419;BME280;4748;50.802;7.132;2022-09-17T17:17:45;100816.88;;;12.91;100.00
9419;BME280;4748;50.802;7.132;2022-09-17T17:20:10;100816.34;;;12.83;100.00
9419;BME280;4748;50.802;7.132;2022-09-17T17:22:39;100816.34;;;12.83;100.00
9419;BME280;4748;50.802;7.132;2022-09-17T17:25:05;100812.94;;;12.76;100.00
9419;BME280;4748;50.802;7.132;2022-09-17T17:27:32;100814.34;;;12.67;100.00
9419;BME280;4748;50.802;7.132;2022-09-17T17:29:58;100827.88;;;12.61;100.00
9419;BME280;4748;50.802;7.132;2022-09-17T17:32:25;100817.00;;;12.56;100.00
9419;BME280;4748;50.802;7.132;2022-09-17T17:34:51;100818.63;;;12.57;100.00
9419;BME280;4748;50.802;7.132;2022-09-17T17:37:16;100808.34;;;12.54;100.00
9419;BME280;4748;50.802;7.132;2022-09-17T17:39:41;100810.88;;;12.49;100.00
9419;BME280;4748;50.802;7.132;2022-09-17T17:42:07;100813.00;;;12.47;100.00
9419;BME280;4748;50.802;7.132;2022-09-17T17:44:33;100814.50;;;12.43;100.00
9419;BME280;4748;50.802;7.132;2022-09-17T17:46:58;100814.38;;;12.38;100.00
9419;BME280;4748;50.802;7.132;2022-09-17T17:49:23;100814.78;;;12.35;100.00
9419;BME280;4748;50.802;7.132;2022-09-17T17:51:49;100816.31;;;12.31;100.00
9419;BME280;4748;50.802;7.132;2022-09-17T17:54:14;100823.19;;;12.27;100.00
9419;BME280;4748;50.802;7.132;2022-09-17T17:56:40;100819.19;;;12.18;100.00
9419;BME280;4748;50.802;7.132;2022-09-17T17:59:05;100819.38;;;12.17;100.00
9419;BME280;4748;50.802;7.132;2022-09-17T18:01:30;100829.63;;;12.08;100.00
9419;BME280;4748;50.802;7.132;2022-09-17T18:04:01;100836.47;;;12.04;100.00
9419;BME280;4748;50.802;7.132;2022-09-17T18:06:27;100839.16;;;12.04;100.00
9419;BME280;4748;50.802;7.132;2022-09-17T18:08:53;100839.16;;;12.04;100.00
9419;BME280;4748;50.802;7.132;2022-09-17T18:11:20;100841.16;;;12.09;100.00
9419;BME280;4748;50.802;7.132;2022-09-17T18:13:48;100845.28;;;12.11;100.00
9419;BME280;4748;50.802;7.132;2022-09-17T18:16:14;100845.28;;;12.11;100.00
9419;BME280;4748;50.802;7.132;2022-09-17T18:18:41;100848.41;;;12.08;100.00
9419;BME280;4748;50.802;7.132;2022-09-17T18:21:09;100859.56;;;12.05;100.00
9419;BME280;4748;50.802;7.132;2022-09-17T18:23:38;100862.25;;;12.05;100.00
9419;BME280;4748;50.802;7.132;2022-09-17T18:26:05;100856.53;;;12.02;100.00
9419;BME280;4748;50.802;7.132;2022-09-17T18:28:33;100861.53;;;11.98;100.00
9419;BME280;4748;50.802;7.132;2022-09-17T18:31:26;100864.84;;;11.94;100.00
9419;BME280;4748;50.802;7.132;2022-09-17T18:33:57;100863.81;;;11.95;100.00
9419;BME280;4748;50.802;7.132;2022-09-17T18:36:24;100871.28;;;11.93;100.00
9419;BME280;4748;50.802;7.132;2022-09-17T18:38:58;100870.84;;;11.96;100.00
9419;BME280;4748;50.802;7.132;2022-09-17T18:41:28;100870.97;;;12.01;100.00
9419;BME280;4748;50.802;7.132;2022-09-17T18:43:54;100878.78;;;12.02;100.00
9419;BME280;4748;50.802;7.132;2022-09-17T18:46:20;100883.81;;;11.99;100.00
9419;BME280;4748;50.802;7.132;2022-09-17T18:48:45;100893.13;;;11.96;100.00
9419;BME280;4748;50.802;7.132;2022-09-17T18:51:15;100892.06;;;11.97;100.00
9419;BME280;4748;50.802;7.132;2022-09-17T18:53:40;100902.38;;;12.00;100.00
9419;BME280;4748;50.802;7.132;2022-09-17T18:56:16;100891.75;;;12.05;100.00
9419;BME280;4748;50.802;7.132;2022-09-17T18:58:46;100894.03;;;12.08;100.00
9419;BME280;4748;50.802;7.132;2022-09-17T19:01:12;100888.56;;;12.15;100.00
9419;BME280;4748;50.802;7.132;2022-09-17T19:03:38;100883.59;;;12.18;100.00
9419;BME280;4748;50.802;7.132;2022-09-17T19:06:05;100885.22;;;12.19;100.00
9419;BME280;4748;50.802;7.132;2022-09-17T19:08:31;100884.41;;;12.19;100.00
9419;BME280;4748;50.802;7.132;2022-09-17T19:10:56;100888.97;;;12.18;100.00
9419;BME280;4748;50.802;7.132;2022-09-17T19:13:26;100890.44;;;12.14;100.00
9419;BME280;4748;50.802;7.132;2022-09-17T19:15:57;100892.44;;;12.19;100.00
9419;BME280;4748;50.802;7.132;2022-09-17T19:18:23;100894.00;;;12.26;100.00
9419;BME280;4748;50.802;7.132;2022-09-17T19:20:48;100886.75;;;12.26;100.00
9419;BME280;4748;50.802;7.132;2022-09-17T19:23:14;100894.22;;;12.24;100.00